createdAt,value
2022-09-30T00:01:42.164Z,67.70
2022-09-30T00:04:14.861Z,68.00
2022-09-30T00:06:43.174Z,68.20
2022-09-30T00:09:13.138Z,68.00
2022-09-30T00:11:42.273Z,67.90
2022-09-30T00:14:16.872Z,67.80
2022-09-30T00:16:45.454Z,67.80
2022-09-30T00:19:14.533Z,67.50
2022-09-30T00:21:42.865Z,67.80
2022-09-30T00:24:11.001Z,68.00
2022-09-30T00:26:39.119Z,68.20
2022-09-30T00:29:07.422Z,68.00
2022-09-30T00:31:37.580Z,67.80
2022-09-30T00:34:11.327Z,67.90
2022-09-30T00:36:43.613Z,67.90
2022-09-30T00:39:14.818Z,68.10
2022-09-30T00:41:43.442Z,68.30
2022-09-30T00:44:50.928Z,68.40
2022-09-30T00:47:45.617Z,69.40
2022-09-30T00:50:20.134Z,69.30
2022-09-30T00:52:51.479Z,68.70
2022-09-30T00:55:28.463Z,68.50
2022-09-30T00:57:58.263Z,68.90
2022-09-30T01:00:26.440Z,68.60
2022-09-30T01:02:56.778Z,68.60
2022-09-30T01:05:27.479Z,68.80
2022-09-30T01:07:58.972Z,68.80
2022-09-30T01:10:27.149Z,68.90
2022-09-30T01:12:55.803Z,68.50
2022-09-30T01:15:34.318Z,67.90
2022-09-30T01:18:11.542Z,67.60
2022-09-30T01:21:12.785Z,68.10
2022-09-30T01:24:20.849Z,68.40
2022-09-30T01:27:06.090Z,68.40
2022-09-30T01:30:00.476Z,68.30
2022-09-30T01:32:50.260Z,68.30
2022-09-30T01:35:26.666Z,68.50
2022-09-30T01:38:05.200Z,68.60
2022-09-30T01:40:42.053Z,68.60
2022-09-30T01:43:18.219Z,68.40
2022-09-30T01:45:51.770Z,68.40
2022-09-30T01:48:27.805Z,68.30
2022-09-30T01:51:00.382Z,68.60
2022-09-30T01:53:38.426Z,68.70
2022-09-30T01:56:13.789Z,69.00
2022-09-30T01:58:47.569Z,68.70
2022-09-30T02:01:23.136Z,68.30
2022-09-30T02:03:57.328Z,68.00
2022-09-30T02:06:29.215Z,67.80
2022-09-30T02:09:01.123Z,67.80
2022-09-30T02:11:31.690Z,68.70
2022-09-30T02:14:06.144Z,68.40
2022-09-30T02:16:40.137Z,68.70
2022-09-30T02:19:18.504Z,68.50
2022-09-30T02:21:53.782Z,68.80
2022-09-30T02:24:25.288Z,69.10
2022-09-30T02:26:57.425Z,69.50
2022-09-30T02:29:30.319Z,69.50
2022-09-30T02:32:03.074Z,69.30
2022-09-30T02:34:37.038Z,69.10
2022-09-30T02:37:09.711Z,69.20
2022-09-30T02:39:44.831Z,69.30
2022-09-30T02:42:20.299Z,69.60
2022-09-30T02:44:50.719Z,69.90
2022-09-30T02:47:26.998Z,70.10
2022-09-30T02:50:03.379Z,70.80
2022-09-30T02:52:44.363Z,71.20
2022-09-30T02:55:20.045Z,71.40
2022-09-30T02:57:58.325Z,71.50
2022-09-30T03:00:27.047Z,71.20
2022-09-30T03:03:01.865Z,70.50
2022-09-30T03:05:31.562Z,70.40
2022-09-30T03:07:59.789Z,70.00
2022-09-30T03:10:30.757Z,69.80
2022-09-30T03:13:13.134Z,69.80
2022-09-30T03:15:52.719Z,70.00
2022-09-30T03:18:36.664Z,70.00
2022-09-30T03:21:15.232Z,70.10
2022-09-30T03:24:07.123Z,70.00
2022-09-30T03:26:42.927Z,70.00
2022-09-30T03:29:18.908Z,70.30
2022-09-30T03:31:58.636Z,69.50
2022-09-30T03:34:33.244Z,69.40
2022-09-30T03:37:10.189Z,69.30
2022-09-30T03:39:55.103Z,69.30
2022-09-30T03:42:27.567Z,69.70
2022-09-30T03:45:03.999Z,69.60
2022-09-30T03:47:35.359Z,69.60
2022-09-30T03:50:08.739Z,69.60
2022-09-30T03:52:39.164Z,69.50
2022-09-30T03:55:11.633Z,69.50
2022-09-30T03:57:40.137Z,69.50
2022-09-30T04:00:09.259Z,69.60
2022-09-30T04:02:37.952Z,69.90
2022-09-30T04:05:07.338Z,70.20
2022-09-30T04:07:37.195Z,70.60
2022-09-30T04:10:06.859Z,70.90
2022-09-30T04:12:35.019Z,71.20
2022-09-30T04:15:03.198Z,71.20
2022-09-30T04:17:31.571Z,71.20
2022-09-30T04:19:59.632Z,71.30
2022-09-30T04:22:27.735Z,71.30
2022-09-30T04:24:57.231Z,71.30
2022-09-30T04:27:25.385Z,71.40
2022-09-30T04:29:53.471Z,71.40
2022-09-30T04:32:23.457Z,71.40
2022-09-30T04:34:51.893Z,72.30
2022-09-30T04:37:20.011Z,71.50
2022-09-30T04:39:48.181Z,71.60
2022-09-30T04:42:18.393Z,71.80
2022-09-30T04:44:46.492Z,72.00
2022-09-30T04:47:15.596Z,71.70
2022-09-30T04:49:43.725Z,71.70
2022-09-30T04:52:11.906Z,71.70
2022-09-30T04:54:40.035Z,71.70
2022-09-30T04:57:08.159Z,71.60
2022-09-30T04:59:37.844Z,71.50
2022-09-30T05:02:06.032Z,71.60
2022-09-30T05:04:34.258Z,71.50
2022-09-30T05:07:03.768Z,71.70
2022-09-30T05:09:32.032Z,71.70
2022-09-30T05:12:02.683Z,71.80
2022-09-30T05:14:30.809Z,71.80
2022-09-30T05:17:00.952Z,71.90
2022-09-30T05:19:29.323Z,71.90
2022-09-30T05:21:57.467Z,71.70
2022-09-30T05:24:25.775Z,71.60
2022-09-30T05:26:53.884Z,71.60
2022-09-30T05:29:22.240Z,71.80
2022-09-30T05:31:50.462Z,72.00
2022-09-30T05:34:21.351Z,72.00
2022-09-30T05:36:49.755Z,72.00
2022-09-30T05:39:18.100Z,72.00
2022-09-30T05:41:47.571Z,72.20
2022-09-30T05:44:15.690Z,72.30
2022-09-30T05:46:44.601Z,72.20
2022-09-30T05:49:12.914Z,72.20
2022-09-30T05:51:42.787Z,72.10
2022-09-30T05:54:11.718Z,72.40
2022-09-30T05:56:42.831Z,72.50
2022-09-30T05:59:11.163Z,72.40
2022-09-30T06:01:39.365Z,72.50
2022-09-30T06:04:07.467Z,72.60
2022-09-30T06:06:35.665Z,72.70
2022-09-30T06:09:05.469Z,72.70
2022-09-30T06:11:35.029Z,72.70
2022-09-30T06:14:03.166Z,72.50
2022-09-30T06:16:32.101Z,72.50
2022-09-30T06:19:00.739Z,72.50
2022-09-30T06:21:29.353Z,72.50
2022-09-30T06:23:58.120Z,72.40
2022-09-30T06:26:27.947Z,72.30
2022-09-30T06:28:56.090Z,72.40
2022-09-30T06:31:24.335Z,72.50
2022-09-30T06:33:54.478Z,72.50
2022-09-30T06:36:22.554Z,72.80
2022-09-30T06:38:54.501Z,72.70
2022-09-30T06:41:24.522Z,72.70
2022-09-30T06:43:58.814Z,72.70
2022-09-30T06:46:31.831Z,72.60
2022-09-30T06:49:12.778Z,72.70
2022-09-30T06:51:42.208Z,72.90
2022-09-30T06:54:10.856Z,72.80
2022-09-30T06:56:39.119Z,72.90
2022-09-30T06:59:08.748Z,72.90
2022-09-30T07:01:37.281Z,72.80
2022-09-30T07:04:09.612Z,72.60
2022-09-30T07:06:38.943Z,72.70
2022-09-30T07:09:07.798Z,72.70
2022-09-30T07:11:36.706Z,72.70
2022-09-30T07:14:05.345Z,72.60
2022-09-30T07:16:35.421Z,72.50
2022-09-30T07:19:04.687Z,72.30
2022-09-30T07:21:32.823Z,72.30
2022-09-30T07:24:01.080Z,72.30
2022-09-30T07:26:30.319Z,72.20
2022-09-30T07:29:00.080Z,72.20
2022-09-30T07:31:32.884Z,72.10
2022-09-30T07:34:03.245Z,72.20
2022-09-30T07:36:33.455Z,72.40
2022-09-30T07:39:05.841Z,72.40
2022-09-30T07:41:36.579Z,72.40
2022-09-30T07:44:06.377Z,72.20
2022-09-30T07:46:39.105Z,71.90
2022-09-30T07:49:13.651Z,71.90
2022-09-30T07:51:45.428Z,71.90
2022-09-30T07:54:16.418Z,71.70
2022-09-30T07:57:08.707Z,71.70
2022-09-30T07:59:35.853Z,71.50
2022-09-30T08:02:04.827Z,71.20
2022-09-30T08:04:35.583Z,71.80
2022-09-30T08:07:05.480Z,70.90
2022-09-30T08:09:33.719Z,70.80
2022-09-30T08:12:03.757Z,70.40
2022-09-30T08:14:32.158Z,70.00
2022-09-30T08:17:00.658Z,70.00
2022-09-30T08:19:30.459Z,70.00
2022-09-30T08:22:00.228Z,69.90
2022-09-30T08:24:28.436Z,69.60
2022-09-30T08:26:57.320Z,69.40
2022-09-30T08:29:49.949Z,69.10
2022-09-30T08:32:13.649Z,68.70
2022-09-30T08:34:41.827Z,68.50
2022-09-30T08:37:11.376Z,68.20
2022-09-30T08:39:40.025Z,67.80
2022-09-30T08:42:41.459Z,67.60
2022-09-30T08:45:31.418Z,67.10
2022-09-30T08:48:10.162Z,66.50
2022-09-30T08:50:52.809Z,66.10
2022-09-30T08:53:27.743Z,65.80
2022-09-30T08:56:02.335Z,66.10
2022-09-30T08:58:33.157Z,66.30
2022-09-30T09:01:08.496Z,66.30
2022-09-30T09:03:36.749Z,66.10
2022-09-30T09:06:21.630Z,66.60
2022-09-30T09:09:03.897Z,65.80
2022-09-30T09:11:49.729Z,65.20
2022-09-30T09:14:31.437Z,64.60
2022-09-30T09:17:15.269Z,64.60
2022-09-30T09:19:48.696Z,64.60
2022-09-30T09:22:19.108Z,64.50
2022-09-30T09:24:53.566Z,63.80
2022-09-30T09:27:26.774Z,62.10
2022-09-30T09:30:01.494Z,61.50
2022-09-30T09:32:30.651Z,62.40
2022-09-30T09:35:03.072Z,60.60
2022-09-30T09:37:57.431Z,58.80
2022-09-30T09:40:35.956Z,57.60
2022-09-30T09:43:13.265Z,56.60
2022-09-30T09:45:51.034Z,55.80
2022-09-30T09:48:19.157Z,55.20
2022-09-30T09:50:57.086Z,55.70
2022-09-30T09:53:48.799Z,54.00
2022-09-30T09:56:20.578Z,53.10
2022-09-30T09:59:10.832Z,52.90
2022-09-30T10:01:41.337Z,51.80
2022-09-30T10:04:19.226Z,51.90
2022-09-30T10:06:51.519Z,50.20
2022-09-30T10:09:29.240Z,50.00
2022-09-30T10:12:30.077Z,49.20
2022-09-30T10:15:01.667Z,48.80
2022-09-30T10:17:33.033Z,49.30
2022-09-30T10:20:07.079Z,48.70
2022-09-30T10:22:36.744Z,47.80
2022-09-30T10:25:28.131Z,47.30
2022-09-30T10:28:00.019Z,45.90
2022-09-30T10:30:45.938Z,46.20
2022-09-30T10:33:21.876Z,45.60
2022-09-30T10:36:05.266Z,45.60
2022-09-30T10:38:34.807Z,44.60
2022-09-30T10:41:04.829Z,45.30
2022-09-30T10:43:40.658Z,44.80
2022-09-30T10:46:25.693Z,44.00
2022-09-30T10:48:56.137Z,44.20
2022-09-30T10:51:36.282Z,44.50
2022-09-30T10:54:05.737Z,42.40
2022-09-30T10:56:44.291Z,43.30
2022-09-30T10:59:37.759Z,42.50
2022-09-30T11:05:04.184Z,40.50
2022-09-30T11:07:38.130Z,40.60
2022-09-30T11:10:14.871Z,40.80
2022-09-30T11:12:48.704Z,40.40
2022-09-30T11:15:25.245Z,40.30
2022-09-30T11:17:59.826Z,39.00
2022-09-30T11:20:33.316Z,38.90
2022-09-30T11:23:07.909Z,38.70
2022-09-30T11:25:44.372Z,38.70
2022-09-30T11:28:37.048Z,38.10
2022-09-30T11:31:15.510Z,38.20
2022-09-30T11:34:05.021Z,38.40
2022-09-30T11:36:42.984Z,38.50
2022-09-30T11:39:29.086Z,38.40
2022-09-30T11:42:04.419Z,37.80
2022-09-30T11:44:35.711Z,37.50
2022-09-30T11:47:29.424Z,37.30
2022-09-30T11:50:34.871Z,36.60
2022-09-30T11:53:16.139Z,37.10
2022-09-30T11:56:03.405Z,35.70
2022-09-30T11:58:42.338Z,35.70
2022-09-30T12:01:23.391Z,35.60
2022-09-30T12:04:05.343Z,35.60
2022-09-30T12:06:36.912Z,34.90
2022-09-30T12:09:15.366Z,35.80
2022-09-30T12:11:50.798Z,35.30
2022-09-30T12:14:26.410Z,35.20
2022-09-30T12:16:57.796Z,35.00
2022-09-30T12:19:34.021Z,35.40
2022-09-30T12:22:08.805Z,34.70
2022-09-30T12:24:39.498Z,34.30
2022-09-30T12:27:16.847Z,33.90
2022-09-30T12:30:13.339Z,32.90
2022-09-30T12:33:14.231Z,32.80
2022-09-30T12:36:08.411Z,33.50
2022-09-30T12:39:01.118Z,33.50
2022-09-30T12:41:45.435Z,33.60
2022-09-30T12:44:51.382Z,34.30
2022-09-30T12:47:38.139Z,34.90
2022-09-30T12:50:10.114Z,34.90
2022-09-30T12:52:39.672Z,35.30
2022-09-30T12:55:23.611Z,34.90
2022-09-30T12:57:53.171Z,35.00
2022-09-30T13:00:23.299Z,34.30
2022-09-30T13:02:57.841Z,34.40
2022-09-30T13:05:51.875Z,33.70
2022-09-30T13:08:47.938Z,33.90
2022-09-30T13:11:38.294Z,33.80
2022-09-30T13:14:34.427Z,34.60
2022-09-30T13:17:26.537Z,34.80
2022-09-30T13:19:57.426Z,35.60
2022-09-30T13:22:56.439Z,35.40
2022-09-30T13:25:26.061Z,36.50
2022-09-30T13:28:10.710Z,35.90
2022-09-30T13:30:42.576Z,36.50
2022-09-30T13:33:43.831Z,36.70
2022-09-30T13:36:28.489Z,36.90
2022-09-30T13:39:26.649Z,36.60
2022-09-30T13:42:13.373Z,37.80
2022-09-30T13:45:00.677Z,37.10
2022-09-30T13:47:34.212Z,36.90
2022-09-30T13:50:13.351Z,36.80
2022-09-30T13:52:43.015Z,36.50
2022-09-30T13:55:19.673Z,36.80
2022-09-30T13:58:07.118Z,36.10
2022-09-30T14:00:49.988Z,36.20
2022-09-30T14:03:41.103Z,36.00
2022-09-30T14:06:20.373Z,35.70
2022-09-30T14:09:16.187Z,35.40
2022-09-30T14:12:12.367Z,35.70
2022-09-30T14:15:11.168Z,35.30
2022-09-30T14:17:56.859Z,35.70
2022-09-30T14:20:38.511Z,36.30
2022-09-30T14:23:14.907Z,36.10
2022-09-30T14:25:52.272Z,36.40
2022-09-30T14:28:27.864Z,36.00
2022-09-30T14:31:13.652Z,36.00
2022-09-30T14:33:43.802Z,35.90
2022-09-30T14:36:15.771Z,36.30
2022-09-30T14:38:47.056Z,36.50
2022-09-30T14:41:20.812Z,36.60
2022-09-30T14:43:52.986Z,36.50
2022-09-30T14:46:31.060Z,36.50
2022-09-30T14:49:04.515Z,36.30
2022-09-30T14:51:38.214Z,36.20
2022-09-30T14:54:06.469Z,35.80
2022-09-30T14:56:36.775Z,36.10
2022-09-30T14:59:18.713Z,35.90
2022-09-30T15:01:50.268Z,35.70
2022-09-30T15:04:21.660Z,35.50
2022-09-30T15:06:52.871Z,35.30
2022-09-30T15:09:25.015Z,35.20
2022-09-30T15:11:53.245Z,35.10
2022-09-30T15:14:23.680Z,35.30
2022-09-30T15:16:54.886Z,35.00
2022-09-30T15:19:25.243Z,34.60
2022-09-30T15:21:55.818Z,34.60
2022-09-30T15:24:27.314Z,35.20
2022-09-30T15:26:57.119Z,34.70
2022-09-30T15:29:25.484Z,34.80
2022-09-30T15:32:01.124Z,35.00
2022-09-30T15:34:36.859Z,34.80
2022-09-30T15:37:07.429Z,34.80
2022-09-30T15:39:58.043Z,35.20
2022-09-30T15:42:37.580Z,35.30
2022-09-30T15:45:25.088Z,35.50
2022-09-30T15:47:59.154Z,36.00
2022-09-30T15:50:38.383Z,36.00
2022-09-30T15:53:07.481Z,36.10
2022-09-30T15:55:43.174Z,36.00
2022-09-30T15:58:33.712Z,36.00
2022-09-30T16:01:16.191Z,36.40
2022-09-30T16:03:54.279Z,36.30
2022-09-30T16:06:28.931Z,36.30
2022-09-30T16:09:01.469Z,36.30
2022-09-30T16:11:32.621Z,36.50
2022-09-30T16:14:03.089Z,36.70
2022-09-30T16:16:34.324Z,37.10
2022-09-30T16:19:05.399Z,37.30
2022-09-30T16:21:45.945Z,37.60
2022-09-30T16:24:45.922Z,38.10
2022-09-30T16:27:29.184Z,38.40
2022-09-30T16:29:58.201Z,38.70
2022-09-30T16:32:28.392Z,38.70
2022-09-30T16:34:58.555Z,39.10
2022-09-30T16:37:27.003Z,39.30
2022-09-30T16:39:57.636Z,39.60
2022-09-30T16:42:25.749Z,39.80
2022-09-30T16:44:57.173Z,40.00
2022-09-30T16:47:25.988Z,40.20
2022-09-30T16:49:54.110Z,40.30
2022-09-30T16:52:24.800Z,40.50
2022-09-30T16:54:52.917Z,40.70
2022-09-30T16:57:21.202Z,40.90
2022-09-30T16:59:49.369Z,41.10
2022-09-30T17:02:17.536Z,41.40
2022-09-30T17:04:46.852Z,41.60
2022-09-30T17:07:15.519Z,41.80
2022-09-30T17:09:45.617Z,42.00
2022-09-30T17:12:15.446Z,42.50
2022-09-30T17:14:44.107Z,42.60
2022-09-30T17:17:13.860Z,42.70
2022-09-30T17:19:42.624Z,43.00
2022-09-30T17:22:10.787Z,43.30
2022-09-30T17:24:38.939Z,43.60
2022-09-30T17:27:08.548Z,43.90
2022-09-30T17:29:41.767Z,44.20
2022-09-30T17:32:10.516Z,44.40
2022-09-30T17:34:39.046Z,44.60
2022-09-30T17:39:35.381Z,45.10
2022-09-30T17:42:20.890Z,45.30
2022-09-30T17:44:51.241Z,45.50
2022-09-30T17:47:19.383Z,45.80
2022-09-30T17:49:47.748Z,45.90
2022-09-30T17:52:16.881Z,46.20
2022-09-30T17:54:49.824Z,46.40
2022-09-30T17:57:20.456Z,46.50
2022-09-30T17:59:49.980Z,46.70
2022-09-30T18:02:18.526Z,46.90
2022-09-30T18:04:47.483Z,47.10
2022-09-30T18:07:15.622Z,47.40
2022-09-30T18:09:43.740Z,47.60
2022-09-30T18:12:12.259Z,47.60
2022-09-30T18:14:40.347Z,47.90
2022-09-30T18:17:11.010Z,48.10
2022-09-30T18:19:39.107Z,48.50
2022-09-30T18:22:07.233Z,48.40
2022-09-30T18:24:52.518Z,48.70
2022-09-30T18:27:22.764Z,48.90
2022-09-30T18:29:50.919Z,48.90
2022-09-30T18:32:20.525Z,49.20
2022-09-30T18:34:49.057Z,49.40
2022-09-30T18:37:17.132Z,49.50
2022-09-30T18:39:45.223Z,49.50
2022-09-30T18:42:13.398Z,49.70
2022-09-30T18:44:41.724Z,49.80
2022-09-30T18:47:09.804Z,50.00
2022-09-30T18:49:39.356Z,50.00
2022-09-30T18:52:08.598Z,50.40
2022-09-30T18:54:36.948Z,50.30
2022-09-30T18:57:05.204Z,50.50
2022-09-30T18:59:33.340Z,50.50
2022-09-30T19:02:02.943Z,50.60
2022-09-30T19:04:31.174Z,50.80
2022-09-30T19:07:00.726Z,50.90
2022-09-30T19:09:28.937Z,51.20
2022-09-30T19:11:57.129Z,51.00
2022-09-30T19:14:25.286Z,51.20
2022-09-30T19:16:53.745Z,51.30
2022-09-30T19:19:23.239Z,51.30
2022-09-30T19:21:51.439Z,51.50
2022-09-30T19:24:27.371Z,51.50
2022-09-30T19:26:55.747Z,52.00
2022-09-30T19:29:25.015Z,51.80
2022-09-30T19:31:53.220Z,51.90
2022-09-30T19:34:31.024Z,52.00
2022-09-30T19:37:00.517Z,52.10
2022-09-30T19:39:42.786Z,52.10
2022-09-30T19:42:18.157Z,52.40
2022-09-30T19:44:47.369Z,52.30
2022-09-30T19:47:15.608Z,52.30
2022-09-30T19:49:44.023Z,52.30
2022-09-30T19:52:20.700Z,52.50
2022-09-30T19:54:53.094Z,52.60
2022-09-30T19:57:23.145Z,52.90
2022-09-30T19:59:52.202Z,52.80
2022-09-30T20:02:21.572Z,53.00
2022-09-30T20:04:51.107Z,53.10
2022-09-30T20:07:19.291Z,53.20
2022-09-30T20:09:47.808Z,53.30
2022-09-30T20:12:17.517Z,53.40
2022-09-30T20:15:03.213Z,53.70
2022-09-30T20:17:31.357Z,53.60
2022-09-30T20:20:16.708Z,53.70
2022-09-30T20:22:45.111Z,53.80
2022-09-30T20:25:13.897Z,53.90
2022-09-30T20:27:51.111Z,54.10
2022-09-30T20:30:20.490Z,54.50
2022-09-30T20:32:48.787Z,55.00
2022-09-30T20:35:17.374Z,54.60
2022-09-30T20:37:45.567Z,54.80
2022-09-30T20:40:13.771Z,55.00
2022-09-30T20:42:43.618Z,55.10
2022-09-30T20:45:13.438Z,55.40
2022-09-30T20:47:47.543Z,55.30
2022-09-30T20:50:34.885Z,55.40
2022-09-30T20:53:08.011Z,55.50
2022-09-30T20:55:39.674Z,55.70
2022-09-30T20:58:10.151Z,56.00
2022-09-30T21:00:40.894Z,56.10
2022-09-30T21:03:11.730Z,56.10
2022-09-30T21:05:40.029Z,56.30
2022-09-30T21:08:08.433Z,56.30
2022-09-30T21:10:38.642Z,56.50
2022-09-30T21:13:12.293Z,56.80
2022-09-30T21:15:40.944Z,57.30
2022-09-30T21:18:09.789Z,57.10
2022-09-30T21:20:38.317Z,57.10
2022-09-30T21:23:06.422Z,57.10
2022-09-30T21:25:34.586Z,57.20
2022-09-30T21:28:04.612Z,57.90
2022-09-30T21:30:34.411Z,57.50
2022-09-30T21:33:02.498Z,57.70
2022-09-30T21:35:30.619Z,57.60
2022-09-30T21:37:58.712Z,57.80
2022-09-30T21:40:28.312Z,57.70
2022-09-30T21:42:56.389Z,57.70
2022-09-30T21:45:25.268Z,57.90
2022-09-30T21:48:01.860Z,58.00
2022-09-30T21:50:32.064Z,58.90
2022-09-30T21:53:00.405Z,58.40
2022-09-30T21:55:29.207Z,58.50
2022-09-30T21:57:57.310Z,58.80
2022-09-30T22:00:25.426Z,58.70
2022-09-30T22:02:54.947Z,58.80
2022-09-30T22:05:23.115Z,59.10
2022-09-30T22:07:51.202Z,59.10
2022-09-30T22:10:19.318Z,59.20
2022-09-30T22:12:48.090Z,59.20
2022-09-30T22:15:16.314Z,59.20
2022-09-30T22:17:44.468Z,59.30
2022-09-30T22:20:14.044Z,59.50
2022-09-30T22:22:42.148Z,59.80
2022-09-30T22:25:10.625Z,59.70
2022-09-30T22:27:38.760Z,59.80
2022-09-30T22:30:08.213Z,59.80
2022-09-30T22:32:36.478Z,60.00
2022-09-30T22:35:22.381Z,59.80
2022-09-30T22:38:09.483Z,60.10
2022-09-30T22:40:37.790Z,60.50
2022-09-30T22:43:05.920Z,60.20
2022-09-30T22:45:36.121Z,60.30
2022-09-30T22:48:04.672Z,60.60
2022-09-30T22:50:36.178Z,60.90
2022-09-30T22:53:05.689Z,61.10
2022-09-30T22:55:34.984Z,61.60
2022-09-30T22:58:03.215Z,61.40
2022-09-30T23:00:31.499Z,61.50
2022-09-30T23:02:59.635Z,61.90
2022-09-30T23:05:27.862Z,61.90
2022-09-30T23:07:56.082Z,62.00
2022-09-30T23:10:25.755Z,62.30
2022-09-30T23:12:53.876Z,62.50
2022-09-30T23:15:22.467Z,62.30
2022-09-30T23:17:50.602Z,62.40
2022-09-30T23:20:18.922Z,63.30
2022-09-30T23:22:47.272Z,62.70
2022-09-30T23:25:15.463Z,62.90
2022-09-30T23:27:48.881Z,62.70
2022-09-30T23:30:17.443Z,63.60
2022-09-30T23:32:45.581Z,63.00
2022-09-30T23:35:16.611Z,63.30
2022-09-30T23:37:44.721Z,63.80
2022-09-30T23:40:13.148Z,63.40
2022-09-30T23:42:41.285Z,63.70
2022-09-30T23:45:12.388Z,63.80
2022-09-30T23:47:40.487Z,64.10
2022-09-30T23:50:10.336Z,63.80
2022-09-30T23:52:38.423Z,63.90
2022-09-30T23:55:07.437Z,64.00
2022-09-30T23:57:35.895Z,64.20
